Time;durP1;ratioP1;P1;durP2;ratioP2;P2;SDS_P1;SDS_P2;PMS_P1;PMS_P2;Temp;Humidity;BMP_temperature;BMP_pressure;BME280_temperature;BME280_humidity;BME280_pressure;Samples;Min_cycle;Max_cycle;Signal;HPM_P1;HPM_P2
2023/03/13 00:01:32;;;;;;;17.50;6.07;;;;;;;17.75;45.57;100202.81;5026150;28;20449;-44
2023/03/13 00:04:00;;;;;;;15.65;5.40;;;;;;;17.78;45.52;100204.31;5025442;28;20046;-44
2023/03/13 00:06:31;;;;;;;18.60;5.72;;;;;;;17.76;45.41;100199.13;5026769;28;20444;-45
2023/03/13 00:08:59;;;;;;;14.77;5.38;;;;;;;17.76;45.59;100191.06;5027383;28;20045;-45
2023/03/13 00:11:26;;;;;;;14.82;5.15;;;;;;;17.74;45.58;100190.41;5025486;28;20132;-45
2023/03/13 00:13:55;;;;;;;14.93;5.43;;;;;;;17.74;45.02;100177.03;5025157;28;20136;-44
2023/03/13 00:16:22;;;;;;;13.25;5.25;;;;;;;17.74;45.52;100174.34;5024301;28;20061;-44
2023/03/13 00:18:51;;;;;;;13.63;4.63;;;;;;;17.73;45.45;100167.28;5026152;28;20055;-44
2023/03/13 00:21:21;;;;;;;14.32;5.57;;;;;;;17.72;45.56;100160.22;5026340;28;20054;-45
2023/03/13 00:23:48;;;;;;;14.40;4.63;;;;;;;17.72;45.64;100148.66;5025924;28;20077;-45
2023/03/13 00:26:17;;;;;;;14.40;4.97;;;;;;;17.71;45.63;100134.44;5029678;28;20186;-45
2023/03/13 00:28:45;;;;;;;11.10;4.35;;;;;;;17.71;45.79;100131.75;5029256;28;20068;-45
2023/03/13 00:31:13;;;;;;;12.50;4.28;;;;;;;17.70;45.50;100124.72;5031078;28;20045;-45
2023/03/13 00:33:42;;;;;;;13.55;5.05;;;;;;;17.69;45.62;100117.69;5028984;28;20080;-45
2023/03/13 00:36:14;;;;;;;11.73;4.30;;;;;;;17.68;45.77;100104.44;5027000;28;20056;-45
2023/03/13 00:38:41;;;;;;;12.50;4.22;;;;;;;17.68;46.14;100104.44;5026846;28;20053;-45
2023/03/13 00:41:11;;;;;;;16.67;4.60;;;;;;;17.66;45.78;100096.59;5030114;28;20041;-44
2023/03/13 00:43:39;;;;;;;14.35;4.18;;;;;;;17.66;45.65;100085.88;5027323;28;20045;-44
2023/03/13 00:46:06;;;;;;;13.50;4.15;;;;;;;17.65;45.68;100072.66;5031620;28;20053;-45
2023/03/13 00:48:33;;;;;;;12.02;3.83;;;;;;;17.65;46.16;100075.34;5025711;28;20884;-45
2023/03/13 00:51:00;;;;;;;14.25;4.20;;;;;;;17.64;45.73;100071.78;5025968;28;20053;-45
2023/03/13 00:53:27;;;;;;;14.02;4.13;;;;;;;17.63;45.96;100058.56;5027548;28;20451;-45
2023/03/13 00:55:55;;;;;;;11.48;4.47;;;;;;;17.63;45.98;100040.66;5029130;28;20045;-45
2023/03/13 00:58:23;;;;;;;11.40;4.18;;;;;;;17.61;46.29;100050.72;5030419;28;20059;-45
2023/03/13 01:00:50;;;;;;;10.40;3.53;;;;;;;17.62;46.09;100048.88;5025108;28;20049;-45
2023/03/13 01:03:17;;;;;;;12.15;4.20;;;;;;;17.60;46.43;100027.59;5023167;28;20222;-46
2023/03/13 01:05:44;;;;;;;11.43;3.25;;;;;;;17.57;46.23;100033.31;5026288;28;20069;-45
2023/03/13 01:08:10;;;;;;;10.38;3.47;;;;;;;17.58;46.41;100028.78;5024634;28;20128;-45
2023/03/13 01:10:37;;;;;;;10.23;3.13;;;;;;;17.56;46.14;100020.06;5024895;28;20121;-45
2023/03/13 01:13:05;;;;;;;10.10;3.00;;;;;;;17.55;46.49;100027.25;5024100;28;20041;-45
2023/03/13 01:15:35;;;;;;;12.18;3.83;;;;;;;17.55;46.79;100013.88;5024763;28;20436;-46
2023/03/13 01:18:01;;;;;;;10.10;3.17;;;;;;;17.53;46.31;100010.53;5023576;28;20054;-45
2023/03/13 01:20:29;;;;;;;11.65;3.53;;;;;;;17.51;46.44;99999.97;5026304;28;20053;-45
2023/03/13 01:22:56;;;;;;;12.65;4.50;;;;;;;17.52;46.75;99985.56;5024384;28;20044;-45
2023/03/13 01:25:22;;;;;;;7.53;3.28;;;;;;;17.51;47.01;99975.03;5026167;28;20069;-45
2023/03/13 01:27:49;;;;;;;9.38;3.03;;;;;;;17.49;47.12;99969.84;5026897;28;20057;-44
2023/03/13 01:30:16;;;;;;;8.98;3.42;;;;;;;17.50;46.77;99959.97;5022915;28;20053;-45
2023/03/13 01:32:42;;;;;;;9.75;3.03;;;;;;;17.48;46.94;99954.75;5024017;28;20045;-45
2023/03/13 01:35:09;;;;;;;9.38;3.15;;;;;;;17.47;46.77;99938.88;5023024;28;20099;-46
2023/03/13 01:37:35;;;;;;;7.70;2.95;;;;;;;17.47;47.12;99946.91;5023797;28;20052;-45
2023/03/13 01:40:02;;;;;;;8.15;2.38;;;;;;;17.46;47.05;99942.56;5025442;28;20045;-45
2023/03/13 01:42:29;;;;;;;10.80;2.83;;;;;;;17.46;47.44;99958.66;5024519;28;20422;-45
2023/03/13 01:44:56;;;;;;;7.72;2.80;;;;;;;17.45;47.32;99948.94;5024945;28;20041;-45
2023/03/13 01:47:23;;;;;;;7.78;2.97;;;;;;;17.44;47.44;99931.16;5025549;28;20041;-45
2023/03/13 01:49:51;;;;;;;8.18;2.58;;;;;;;17.43;47.37;99935.69;5022448;28;20341;-45
2023/03/13 01:52:17;;;;;;;5.97;2.60;;;;;;;17.43;47.76;99918.78;5020622;28;20586;-44
2023/03/13 01:55:07;;;;;;;7.47;2.70;;;;;;;17.41;48.12;99921.66;5023260;28;20314;-44
2023/03/13 01:57:41;;;;;;;5.25;2.15;;;;;;;17.40;48.33;99898.53;5023511;28;20431;-44
2023/03/13 02:00:11;;;;;;;6.95;2.60;;;;;;;17.41;47.47;99894.03;5024703;28;20091;-46
2023/03/13 02:02:42;;;;;;;8.55;2.97;;;;;;;17.39;48.02;99907.59;5025423;28;20084;-45
2023/03/13 02:05:08;;;;;;;7.38;2.75;;;;;;;17.39;47.96;99874.59;5021411;28;20115;-45
2023/03/13 02:07:43;;;;;;;5.88;2.22;;;;;;;17.38;48.23;99867.59;5026667;28;20054;-45
2023/03/13 02:10:12;;;;;;;7.47;3.08;;;;;;;17.38;48.00;99871.09;5022318;28;20076;-45
2023/03/13 02:12:39;;;;;;;9.52;2.35;;;;;;;17.37;48.10;99858.72;5023942;28;20380;-45
2023/03/13 02:15:12;;;;;;;7.32;2.50;;;;;;;17.36;48.53;99854.34;5024943;28;20919;-44
2023/03/13 02:17:40;;;;;;;6.45;2.50;;;;;;;17.36;48.27;99854.34;5021720;28;20051;-44
2023/03/13 02:20:07;;;;;;;5.82;2.28;;;;;;;17.36;48.14;99846.31;5022633;28;20045;-44
2023/03/13 02:22:55;;;;;;;7.78;2.28;;;;;;;17.35;48.23;99833.13;5021446;28;20620;-43
2023/03/13 02:25:45;;;;;;;6.30;2.25;;;;;;;17.36;48.59;99842.81;5025893;28;20050;-44
2023/03/13 02:28:23;;;;;;;7.05;2.63;;;;;;;17.35;48.65;99835.78;5024121;28;20755;-44
2023/03/13 02:30:53;;;;;;;7.32;2.00;;;;;;;17.37;48.50;99833.78;5026383;28;20133;-44
2023/03/13 02:33:25;;;;;;;6.97;2.20;;;;;;;17.34;48.63;99823.41;5023727;28;20128;-44
2023/03/13 02:35:53;;;;;;;4.20;2.13;;;;;;;17.34;48.70;99829.59;5027184;28;20076;-45
2023/03/13 02:38:24;;;;;;;6.15;2.30;;;;;;;17.34;48.67;99824.25;5027907;28;20053;-45
2023/03/13 02:40:52;;;;;;;3.80;1.77;;;;;;;17.35;48.70;99830.44;5026314;28;20065;-45
2023/03/13 02:43:25;;;;;;;5.40;2.03;;;;;;;17.34;49.10;99828.78;5024974;28;20051;-45
2023/03/13 02:46:17;;;;;;;4.30;1.88;;;;;;;17.31;48.98;99823.75;5026403;28;20056;-45
2023/03/13 02:48:55;;;;;;;3.30;2.00;;;;;;;17.35;49.03;99814.38;5024579;28;20050;-45
2023/03/13 02:51:44;;;;;;;4.28;1.90;;;;;;;17.33;49.24;99824.44;5028307;28;20041;-45
2023/03/13 02:54:23;;;;;;;5.90;1.70;;;;;;;17.35;48.54;99819.72;5025841;28;20136;-45
2023/03/13 02:56:54;;;;;;;6.57;1.88;;;;;;;17.34;48.58;99826.94;5024230;28;20041;-48
2023/03/13 02:59:22;;;;;;;4.15;1.67;;;;;;;17.33;49.02;99825.25;5024617;28;20053;-44
2023/03/13 03:01:51;;;;;;;5.95;1.83;;;;;;;17.33;48.66;99816.41;5022563;28;20049;-44
2023/03/13 03:04:20;;;;;;;5.68;2.40;;;;;;;17.33;49.15;99821.75;5026456;28;20049;-45
2023/03/13 03:06:47;;;;;;;5.53;2.10;;;;;;;17.33;48.77;99816.41;5029713;28;20050;-44
2023/03/13 03:09:14;;;;;;;4.60;2.03;;;;;;;17.34;49.17;99826.94;5026568;28;20066;-45
2023/03/13 03:11:41;;;;;;;4.30;2.03;;;;;;;17.34;49.25;99818.06;5028384;28;20073;-45
2023/03/13 03:14:09;;;;;;;4.38;1.60;;;;;;;17.34;49.36;99818.06;5026408;28;20045;-45
2023/03/13 03:16:36;;;;;;;6.80;2.22;;;;;;;17.35;48.79;99817.03;5028436;28;20061;-45
2023/03/13 03:19:03;;;;;;;6.88;2.28;;;;;;;17.35;48.73;99809.00;5024883;28;20056;-45
2023/03/13 03:21:30;;;;;;;4.50;2.03;;;;;;;17.35;49.54;99807.16;5025042;28;20053;-45
2023/03/13 03:23:56;;;;;;;5.95;1.65;;;;;;;17.36;49.15;99805.31;5026457;28;20048;-45
2023/03/13 03:26:23;;;;;;;4.82;1.70;;;;;;;17.36;49.18;99795.44;5024359;28;20060;-45
2023/03/13 03:28:50;;;;;;;5.07;1.67;;;;;;;17.37;49.08;99790.94;5025421;28;20056;-43
2023/03/13 03:31:17;;;;;;;4.18;1.65;;;;;;;17.38;48.89;99795.28;5027925;28;20053;-44
2023/03/13 03:33:44;;;;;;;3.83;1.42;;;;;;;17.38;49.11;99803.31;5027242;28;20046;-45
2023/03/13 03:36:13;;;;;;;4.93;1.90;;;;;;;17.38;49.09;99793.44;5030427;28;20049;-45
2023/03/13 03:38:41;;;;;;;3.60;1.58;;;;;;;17.40;48.63;99795.91;5032654;28;20124;-45
2023/03/13 03:41:09;;;;;;;4.22;1.83;;;;;;;17.38;48.95;99788.06;5029453;28;20053;-45
2023/03/13 03:43:36;;;;;;;3.10;1.35;;;;;;;17.39;49.35;99787.03;5028998;28;20046;-45
2023/03/13 03:46:03;;;;;;;3.08;1.65;;;;;;;17.38;49.00;99785.38;5032123;28;20152;-45
2023/03/13 03:48:29;;;;;;;5.03;1.55;;;;;;;17.38;49.31;99777.34;5027792;28;20049;-46
2023/03/13 03:50:56;;;;;;;3.85;1.45;;;;;;;17.40;49.19;99777.16;5026530;28;20065;-44
2023/03/13 03:53:23;;;;;;;3.90;1.30;;;;;;;17.39;49.49;99773.66;5027861;28;20364;-44
2023/03/13 03:55:49;;;;;;;3.63;1.75;;;;;;;17.39;49.26;99768.31;5029399;28;20053;-44
2023/03/13 03:58:16;;;;;;;4.85;1.65;;;;;;;17.38;49.17;99757.78;5026905;28;20071;-44
2023/03/13 04:00:44;;;;;;;2.83;1.63;;;;;;;17.39;49.58;99768.31;5025543;28;20052;-44
2023/03/13 04:03:11;;;;;;;2.58;1.27;;;;;;;17.39;49.47;99767.47;5022248;28;20049;-45
2023/03/13 04:05:37;;;;;;;3.95;1.50;;;;;;;17.39;49.11;99762.94;5024762;28;20147;-45
2023/03/13 04:08:05;;;;;;;4.85;1.77;;;;;;;17.39;49.64;99751.41;5026043;28;20048;-44
2023/03/13 04:10:31;;;;;;;4.05;1.38;;;;;;;17.38;49.18;99761.28;5025375;28;20045;-44
2023/03/13 04:12:58;;;;;;;3.33;1.58;;;;;;;17.39;49.64;99760.25;5026182;28;20077;-44
2023/03/13 04:15:24;;;;;;;3.28;1.45;;;;;;;17.39;49.23;99754.91;5025025;28;20057;-44
2023/03/13 04:17:51;;;;;;;4.47;1.67;;;;;;;17.39;49.71;99741.50;5026492;28;20420;-45
2023/03/13 04:20:18;;;;;;;3.67;1.38;;;;;;;17.40;49.38;99747.69;5025536;28;20092;-45
2023/03/13 04:22:44;;;;;;;5.15;1.50;;;;;;;17.39;49.37;99749.56;5022198;28;20045;-45
2023/03/13 04:25:11;;;;;;;5.43;1.98;;;;;;;17.39;49.29;99730.81;5026241;28;20052;-45
2023/03/13 04:27:37;;;;;;;3.58;1.48;;;;;;;17.39;49.17;99725.44;5028175;28;20046;-44
2023/03/13 04:30:05;;;;;;;5.40;1.60;;;;;;;17.39;49.48;99741.50;5023992;28;20073;-44
2023/03/13 04:32:32;;;;;;;2.90;1.10;;;;;;;17.39;49.49;99748.72;5026491;28;20041;-44
2023/03/13 04:34:59;;;;;;;3.60;1.30;;;;;;;17.40;49.85;99732.47;5025345;28;20333;-44
2023/03/13 04:37:25;;;;;;;5.03;1.73;;;;;;;17.40;49.54;99728.94;5027583;28;20349;-45
2023/03/13 04:39:52;;;;;;;2.65;1.48;;;;;;;17.39;50.11;99725.44;5023363;28;20057;-45
2023/03/13 04:42:18;;;;;;;3.60;1.50;;;;;;;17.39;49.77;99722.75;5023916;28;20532;-45
2023/03/13 04:44:45;;;;;;;3.97;1.35;;;;;;;17.40;49.64;99720.91;5025539;28;20045;-45
2023/03/13 04:47:11;;;;;;;3.67;1.27;;;;;;;17.39;49.77;99720.09;5023762;28;20045;-45
2023/03/13 04:49:38;;;;;;;3.58;1.30;;;;;;;17.40;49.73;99723.59;5024650;28;20049;-44
2023/03/13 04:52:05;;;;;;;4.28;1.50;;;;;;;17.40;50.17;99720.91;5023770;28;20057;-44
2023/03/13 04:54:32;;;;;;;4.55;1.45;;;;;;;17.40;49.71;99716.38;5024840;28;20145;-45
2023/03/13 04:56:58;;;;;;;5.35;1.50;;;;;;;17.39;49.69;99725.44;5026723;28;20088;-44
2023/03/13 04:59:25;;;;;;;3.42;1.33;;;;;;;17.39;49.97;99730.81;5022496;28;20057;-44
2023/03/13 05:01:51;;;;;;;2.83;1.77;;;;;;;17.38;49.92;99720.28;5025981;28;20046;-44
2023/03/13 05:04:18;;;;;;;3.53;1.02;;;;;;;17.39;50.03;99712.06;5023200;28;20838;-44
2023/03/13 05:06:44;;;;;;;3.92;1.58;;;;;;;17.40;49.54;99720.91;5025687;28;20446;-45
2023/03/13 05:09:11;;;;;;;2.95;1.50;;;;;;;17.40;49.66;99720.91;5026606;28;20090;-45
2023/03/13 05:11:39;;;;;;;3.58;1.55;;;;;;;17.40;50.33;99707.53;5042049;28;20053;-44
2023/03/13 05:14:07;;;;;;;3.55;1.30;;;;;;;17.39;49.71;99712.06;5024815;28;20045;-45
2023/03/13 05:16:34;;;;;;;4.25;1.50;;;;;;;17.40;49.82;99705.69;5026352;28;20076;-45
2023/03/13 05:19:01;;;;;;;2.58;1.33;;;;;;;17.39;49.45;99695.16;5017671;28;20543;-45
2023/03/13 05:21:27;;;;;;;3.88;1.42;;;;;;;17.40;49.60;99702.16;5024322;28;20053;-45
2023/03/13 05:23:54;;;;;;;4.70;1.70;;;;;;;17.40;49.93;99683.41;5025228;28;20071;-45
2023/03/13 05:26:20;;;;;;;3.67;2.15;;;;;;;17.41;50.11;99691.28;5024005;28;20058;-45
2023/03/13 05:28:47;;;;;;;3.80;1.67;;;;;;;17.41;49.96;99682.44;5025008;28;20060;-45
2023/03/13 05:31:13;;;;;;;6.68;2.28;;;;;;;17.39;50.12;99677.22;5023002;28;20373;-45
2023/03/13 05:33:40;;;;;;;3.80;2.42;;;;;;;17.39;49.81;99682.59;5023922;28;20053;-45
2023/03/13 05:36:07;;;;;;;5.72;2.45;;;;;;;17.40;49.97;99684.25;5023203;28;20053;-44
2023/03/13 05:38:33;;;;;;;3.53;2.13;;;;;;;17.40;49.65;99684.25;5021083;28;20049;-44
2023/03/13 05:41:00;;;;;;;5.82;2.35;;;;;;;17.41;49.91;99685.09;5020774;28;20042;-44
2023/03/13 05:43:26;;;;;;;6.07;2.55;;;;;;;17.40;50.42;99675.38;5020020;28;20060;-45
2023/03/13 05:45:53;;;;;;;5.30;2.45;;;;;;;17.40;49.82;99670.84;5018411;28;20046;-44
2023/03/13 05:48:19;;;;;;;5.07;2.17;;;;;;;17.40;50.27;99670.84;5020599;28;20060;-44
2023/03/13 05:50:46;;;;;;;4.75;2.40;;;;;;;17.41;49.85;99663.69;5019761;28;20046;-45
2023/03/13 05:53:12;;;;;;;9.90;2.92;;;;;;;17.41;49.71;99669.03;5020440;28;20465;-46
2023/03/13 05:55:39;;;;;;;7.05;2.75;;;;;;;17.41;49.61;99674.41;5023522;28;20429;-46
2023/03/13 05:58:06;;;;;;;4.97;2.80;;;;;;;17.42;49.92;99668.00;5026508;28;20045;-44
2023/03/13 06:00:32;;;;;;;9.30;3.25;;;;;;;17.41;50.11;99661.84;5023251;28;20050;-45
2023/03/13 06:02:59;;;;;;;6.47;3.17;;;;;;;17.41;49.74;99669.88;5023108;28;20052;-47
2023/03/13 06:05:25;;;;;;;7.35;3.42;;;;;;;17.41;49.79;99658.31;5023062;28;20045;-44
2023/03/13 06:07:52;;;;;;;7.65;4.03;;;;;;;17.41;49.74;99653.78;5022153;28;20452;-45
2023/03/13 06:10:18;;;;;;;7.43;3.10;;;;;;;17.41;49.82;99651.13;5019642;28;20060;-46
2023/03/13 06:12:52;;;;;;;6.72;3.17;;;;;;;17.41;50.22;99653.78;5022128;28;20049;-45
2023/03/13 06:15:19;;;;;;;6.82;2.95;;;;;;;17.41;50.10;99642.25;5020420;28;20052;-45
2023/03/13 06:17:45;;;;;;;5.75;3.00;;;;;;;17.42;49.94;99665.34;5019760;28;20064;-45
2023/03/13 06:20:12;;;;;;;5.47;3.10;;;;;;;17.41;49.73;99647.59;5021552;28;20042;-45
2023/03/13 06:22:40;;;;;;;10.73;3.55;;;;;;;17.42;50.10;99657.31;5020486;28;20041;-45
2023/03/13 06:25:07;;;;;;;9.70;3.50;;;;;;;17.41;50.38;99658.31;5024835;28;20069;-45
2023/03/13 06:27:34;;;;;;;10.10;3.47;;;;;;;17.41;50.09;99656.47;5026191;28;20350;-44
2023/03/13 06:30:01;;;;;;;6.70;3.38;;;;;;;17.40;49.91;99646.75;5023446;28;20059;-46
2023/03/13 06:32:27;;;;;;;6.32;2.90;;;;;;;17.41;50.18;99644.94;5027069;28;20334;-45
2023/03/13 06:34:54;;;;;;;4.65;2.58;;;;;;;17.41;49.96;99642.25;5019291;28;20046;-45
2023/03/13 06:37:21;;;;;;;8.68;3.40;;;;;;;17.41;50.09;99651.13;5015405;28;20528;-45
2023/03/13 06:39:47;;;;;;;7.40;3.28;;;;;;;17.41;50.04;99659.16;5022492;28;20516;-45
2023/03/13 06:42:14;;;;;;;6.90;3.20;;;;;;;17.41;49.97;99652.97;5019689;28;20053;-45
2023/03/13 06:44:40;;;;;;;7.28;3.10;;;;;;;17.42;49.89;99662.66;5017504;28;20061;-45
2023/03/13 06:47:07;;;;;;;5.75;3.15;;;;;;;17.40;50.38;99657.47;5019144;28;20049;-45
2023/03/13 06:49:34;;;;;;;5.63;3.08;;;;;;;17.40;50.50;99667.34;5024919;28;20042;-45
2023/03/13 06:52:01;;;;;;;6.65;3.10;;;;;;;17.41;50.14;99663.69;5019426;28;20049;-45
2023/03/13 06:54:27;;;;;;;6.78;3.03;;;;;;;17.41;50.54;99679.75;5019586;28;20049;-45
2023/03/13 06:56:54;;;;;;;7.43;3.17;;;;;;;17.41;50.27;99672.53;5021976;28;20041;-45
2023/03/13 06:59:20;;;;;;;8.57;3.30;;;;;;;17.41;50.13;99658.31;5019074;28;20063;-45
2023/03/13 07:01:47;;;;;;;6.53;2.85;;;;;;;17.41;50.48;99655.66;5016601;28;20054;-44
2023/03/13 07:04:15;;;;;;;7.70;3.35;;;;;;;17.41;50.71;99659.16;5022224;28;20333;-45
2023/03/13 07:06:42;;;;;;;7.30;3.30;;;;;;;17.41;50.27;99677.91;5016880;28;20133;-45
2023/03/13 07:09:09;;;;;;;6.00;3.15;;;;;;;17.40;50.40;99657.47;5017124;28;20042;-45
2023/03/13 07:11:36;;;;;;;5.05;2.92;;;;;;;17.40;50.76;99676.22;5020438;28;20054;-45
2023/03/13 07:14:02;;;;;;;7.30;3.13;;;;;;;17.40;50.19;99656.63;5020126;28;20042;-45
2023/03/13 07:16:42;;;;;;;7.75;3.22;;;;;;;17.40;50.08;99667.34;5021279;28;20089;-44
2023/03/13 07:19:09;;;;;;;6.32;2.92;;;;;;;17.39;50.45;99663.84;5024907;28;20050;-44
2023/03/13 07:21:36;;;;;;;7.38;3.53;;;;;;;17.39;50.43;99671.03;5022492;28;20493;-46
2023/03/13 07:24:03;;;;;;;6.90;3.45;;;;;;;17.39;50.43;99668.38;5017830;28;20041;-45
2023/03/13 07:26:29;;;;;;;6.35;2.97;;;;;;;17.40;50.34;99667.34;5020280;28;20347;-45
2023/03/13 07:28:56;;;;;;;7.10;2.80;;;;;;;17.40;50.38;99670.03;5014734;28;20050;-44
2023/03/13 07:31:23;;;;;;;8.23;3.03;;;;;;;17.38;50.90;99672.91;5021783;28;20057;-44
2023/03/13 07:33:55;;;;;;;6.68;3.03;;;;;;;17.39;50.39;99676.41;5020092;28;20093;-44
2023/03/13 07:36:22;;;;;;;6.75;2.95;;;;;;;17.39;50.30;99681.75;5021172;28;20342;-45
2023/03/13 07:38:50;;;;;;;5.20;3.17;;;;;;;17.38;50.76;99675.56;5019059;28;20045;-45
2023/03/13 07:41:17;;;;;;;5.25;2.72;;;;;;;17.38;50.77;99675.56;5010983;28;20179;-45
2023/03/13 07:43:45;;;;;;;7.93;2.50;;;;;;;17.38;50.58;99688.97;5015790;28;20730;-44
2023/03/13 07:46:14;;;;;;;9.27;4.28;;;;;;;17.37;51.11;99684.63;5023342;28;20046;-45
2023/03/13 07:48:42;;;;;;;6.07;2.88;;;;;;;17.37;50.43;99695.34;5021816;28;20060;-44
2023/03/13 07:51:17;;;;;;;9.75;3.67;;;;;;;17.37;50.46;99691.84;5023827;28;20046;-44
2023/03/13 07:53:49;;;;;;;5.45;2.58;;;;;;;17.37;50.38;99683.78;5026662;28;20049;-45
2023/03/13 07:56:20;;;;;;;5.90;2.42;;;;;;;17.36;50.81;99672.22;5024137;28;20081;-45
2023/03/13 07:58:48;;;;;;;6.80;2.58;;;;;;;17.37;50.91;99675.75;5021631;28;20226;-45
2023/03/13 08:01:22;;;;;;;7.32;3.00;;;;;;;17.36;51.00;99669.53;5023181;28;20053;-45
2023/03/13 08:03:54;;;;;;;7.90;2.80;;;;;;;17.38;50.96;99656.00;5021805;28;20057;-45
2023/03/13 08:06:23;;;;;;;6.10;2.90;;;;;;;17.37;50.74;99643.63;5023872;28;20061;-45
2023/03/13 08:08:50;;;;;;;5.60;2.60;;;;;;;17.37;51.05;99635.59;5023277;28;20140;-45
2023/03/13 08:11:20;;;;;;;5.15;2.63;;;;;;;17.39;51.20;99645.09;5022707;28;20053;-45
2023/03/13 08:13:48;;;;;;;6.60;2.67;;;;;;;17.39;50.97;99650.44;5023265;28;20049;-45
2023/03/13 08:16:34;;;;;;;7.53;2.95;;;;;;;17.40;51.15;99659.31;5015467;28;20054;-44
2023/03/13 08:19:04;;;;;;;6.32;2.97;;;;;;;17.41;50.72;99644.94;5021051;28;20132;-45
2023/03/13 08:21:34;;;;;;;7.63;3.03;;;;;;;17.43;51.06;99650.94;5025798;28;20081;-45
2023/03/13 08:24:06;;;;;;;4.85;2.40;;;;;;;17.42;51.13;99659.97;5018057;28;20533;-46
2023/03/13 08:26:35;;;;;;;4.93;2.80;;;;;;;17.44;51.42;99628.47;5023803;28;20042;-45
2023/03/13 08:29:05;;;;;;;4.65;2.22;;;;;;;17.45;50.56;99639.03;5021432;28;20045;-45
2023/03/13 08:31:35;;;;;;;4.80;2.22;;;;;;;17.45;51.03;99632.84;5026264;28;20065;-46
2023/03/13 08:34:01;;;;;;;6.07;2.47;;;;;;;17.45;50.54;99632.84;5022387;28;20049;-44
2023/03/13 08:36:36;;;;;;;5.72;2.10;;;;;;;17.45;50.84;99625.63;5024872;28;20049;-45
2023/03/13 08:39:12;;;;;;;5.85;2.30;;;;;;;17.45;51.16;99604.22;5022561;28;20128;-45
2023/03/13 08:41:41;;;;;;;7.95;2.60;;;;;;;17.46;50.79;99621.09;5030339;28;20049;-45
2023/03/13 08:44:14;;;;;;;5.07;2.15;;;;;;;17.46;51.05;99602.34;5026503;28;20404;-45
2023/03/13 08:46:41;;;;;;;4.45;2.53;;;;;;;17.46;51.50;99623.78;5020385;28;20437;-45
2023/03/13 08:49:08;;;;;;;4.93;1.95;;;;;;;17.46;51.06;99618.44;5021679;28;20318;-45
2023/03/13 08:51:35;;;;;;;5.35;2.30;;;;;;;17.47;51.40;99598.66;5023686;28;20045;-44
2023/03/13 08:54:04;;;;;;;4.63;1.95;;;;;;;17.47;50.75;99612.06;5024483;28;20088;-45
2023/03/13 08:56:31;;;;;;;4.72;1.92;;;;;;;17.48;51.13;99632.47;5024529;28;20049;-45
2023/03/13 08:59:00;;;;;;;4.32;2.10;;;;;;;17.48;51.51;99611.03;5022248;28;20049;-45
2023/03/13 09:01:29;;;;;;;3.75;2.30;;;;;;;17.50;51.03;99604.50;5017662;28;20128;-46
2023/03/13 09:03:56;;;;;;;5.72;2.55;;;;;;;17.51;51.05;99595.44;5025021;28;20071;-44
2023/03/13 09:06:23;;;;;;;5.25;2.08;;;;;;;17.56;51.56;99588.69;5024381;28;20072;-45
2023/03/13 09:08:50;;;;;;;4.18;1.92;;;;;;;17.59;51.28;99586.50;5028779;28;20053;-45
2023/03/13 09:11:18;;;;;;;6.97;1.77;;;;;;;17.64;51.24;99568.03;5025206;28;20055;-45
2023/03/13 09:13:48;;;;;;;4.97;1.80;;;;;;;17.67;51.62;99586.41;5028508;28;20132;-46
2023/03/13 09:16:17;;;;;;;8.55;2.47;;;;;;;17.70;51.56;99583.38;5021223;28;20053;-46
2023/03/13 09:18:45;;;;;;;6.90;2.72;;;;;;;17.73;51.01;99572.31;5017973;28;20065;-44
2023/03/13 09:21:18;;;;;;;5.95;1.92;;;;;;;17.76;51.52;99565.75;5021560;28;20042;-44
2023/03/13 09:23:45;;;;;;;4.82;2.03;;;;;;;17.80;51.36;99560.88;5024817;28;20056;-44
2023/03/13 09:26:12;;;;;;;4.50;1.95;;;;;;;17.82;51.05;99570.41;5025320;28;20422;-44
2023/03/13 09:28:40;;;;;;;4.97;1.83;;;;;;;17.84;50.59;99567.53;5019320;28;20100;-45
2023/03/13 09:31:08;;;;;;;5.85;2.15;;;;;;;17.85;50.73;99550.41;5023372;28;20045;-44
2023/03/13 09:33:35;;;;;;;7.25;2.05;;;;;;;17.86;50.74;99560.97;5019320;28;20045;-45
2023/03/13 09:36:03;;;;;;;3.63;1.90;;;;;;;17.87;50.88;99559.94;5022809;28;20037;-44
2023/03/13 09:38:30;;;;;;;4.22;1.80;;;;;;;17.89;51.32;99554.41;5017604;28;20108;-44
2023/03/13 09:41:04;;;;;;;5.78;1.95;;;;;;;17.90;50.66;99546.19;5023994;28;20059;-45
2023/03/13 09:43:41;;;;;;;6.30;2.20;;;;;;;17.90;51.36;99529.28;5026529;28;20103;-45
2023/03/13 09:46:16;;;;;;;9.50;2.42;;;;;;;17.91;50.90;99531.75;5023057;28;20073;-45
2023/03/13 09:48:56;;;;;;;4.65;1.70;;;;;;;17.94;50.72;99533.25;5021909;28;20045;-44
2023/03/13 09:51:45;;;;;;;3.85;1.50;;;;;;;17.96;50.80;99528.53;5021476;28;20056;-45
2023/03/13 09:54:39;;;;;;;6.90;1.83;;;;;;;17.99;50.47;99512.06;5025310;28;20052;-45
2023/03/13 09:57:14;;;;;;;5.07;1.73;;;;;;;18.03;50.32;99513.38;5022542;28;20112;-45
2023/03/13 09:59:51;;;;;;;3.60;1.85;;;;;;;18.07;50.31;99508.47;5020960;28;20045;-45
2023/03/13 10:02:28;;;;;;;6.72;1.83;;;;;;;18.10;50.37;99500.88;5021638;28;20053;-45
2023/03/13 10:05:09;;;;;;;3.13;1.40;;;;;;;18.12;50.24;99524.81;5020036;28;20042;-46
2023/03/13 10:07:36;;;;;;;4.85;1.65;;;;;;;18.15;49.55;99492.28;5021498;28;20050;-45
2023/03/13 10:10:06;;;;;;;4.88;1.90;;;;;;;18.17;49.73;99498.28;5018993;28;20058;-45
2023/03/13 10:12:47;;;;;;;4.70;2.10;;;;;;;18.19;49.76;99483.66;5022883;28;20045;-45
2023/03/13 10:15:33;;;;;;;4.90;1.73;;;;;;;18.21;49.97;99500.41;5024488;28;20077;-46
2023/03/13 10:18:12;;;;;;;4.30;1.48;;;;;;;18.23;49.72;99501.03;5020437;28;20053;-46
2023/03/13 10:20:41;;;;;;;4.90;2.03;;;;;;;18.25;49.73;99496.34;5021421;28;20073;-45
2023/03/13 10:23:39;;;;;;;3.88;1.48;;;;;;;18.27;49.81;99504.19;5019877;28;20561;-45
2023/03/13 10:26:14;;;;;;;4.63;1.75;;;;;;;18.32;49.44;99479.47;5022307;28;20033;-46
2023/03/13 10:28:40;;;;;;;3.45;1.50;;;;;;;18.36;49.38;99495.00;5021727;28;20053;-45
2023/03/13 10:31:18;;;;;;;2.75;1.45;;;;;;;18.39;49.48;99497.31;5024799;28;20050;-45
2023/03/13 10:33:45;;;;;;;5.57;1.58;;;;;;;18.43;49.75;99476.31;5018586;28;20042;-44
2023/03/13 10:36:13;;;;;;;3.55;1.20;;;;;;;18.46;49.44;99497.41;5021849;28;20037;-45
2023/03/13 10:38:51;;;;;;;4.55;1.30;;;;;;;18.49;49.27;99480.91;5017421;28;20045;-45
2023/03/13 10:41:29;;;;;;;5.47;1.33;;;;;;;18.51;49.22;99484.22;5019287;28;20056;-45
2023/03/13 10:44:03;;;;;;;3.95;1.63;;;;;;;18.56;49.30;99480.97;5018075;28;20121;-45
2023/03/13 10:46:31;;;;;;;;;;;;;;;18.56;49.43;99489.84;5023312;28;20318;-45
2023/03/13 10:49:12;;;;;;;4.32;1.35;;;;;;;18.62;49.00;99494.47;5019792;28;19955;-45
2023/03/13 10:51:39;;;;;;;3.67;1.60;;;;;;;18.64;48.90;99483.53;5020570;28;20096;-45
2023/03/13 10:54:20;;;;;;;4.53;1.20;;;;;;;18.65;48.87;99475.31;5023489;28;20048;-44
2023/03/13 10:56:48;;;;;;;6.13;1.67;;;;;;;18.68;48.93;99448.06;5025102;28;20042;-45
2023/03/13 10:59:23;;;;;;;2.63;1.20;;;;;;;18.71;48.71;99473.75;5020783;28;20500;-45
2023/03/13 11:01:52;;;;;;;2.25;1.60;;;;;;;18.72;49.02;99464.66;5018845;28;20060;-45
2023/03/13 11:04:32;;;;;;;2.75;1.23;;;;;;;18.73;49.09;99464.50;5019362;28;20056;-45
2023/03/13 11:07:14;;;;;;;2.78;1.30;;;;;;;18.78;48.85;99465.75;5023373;28;20053;-45
2023/03/13 11:09:40;;;;;;;4.22;1.20;;;;;;;18.82;48.91;99467.88;5021574;28;20053;-45
2023/03/13 11:12:16;;;;;;;3.38;1.50;;;;;;;18.84;48.72;99452.38;5021641;28;20046;-46
2023/03/13 11:14:44;;;;;;;3.40;1.50;;;;;;;18.87;48.18;99462.75;5020751;28;20063;-46
2023/03/13 11:17:29;;;;;;;4.63;1.45;;;;;;;18.89;48.70;99435.69;5020596;28;20096;-46
2023/03/13 11:20:16;;;;;;;5.40;1.40;;;;;;;18.93;48.62;99439.66;5017245;28;20398;-45
2023/03/13 11:22:58;;;;;;;5.75;1.27;;;;;;;18.95;48.24;99451.88;5018251;28;20042;-46
2023/03/13 11:26:05;;;;;;;4.70;1.35;;;;;;;18.95;48.51;99449.19;5021761;28;20053;-46
2023/03/13 11:28:57;;;;;;;5.80;1.58;;;;;;;18.97;48.81;99457.03;5028299;28;20153;-45
2023/03/13 11:31:39;;;;;;;5.32;1.48;;;;;;;18.98;48.61;99464.09;5026405;28;20488;-46
2023/03/13 11:34:29;;;;;;;5.38;1.58;;;;;;;18.98;48.62;99454.16;5024512;28;20046;-46
2023/03/13 11:37:03;;;;;;;5.65;1.90;;;;;;;18.98;48.72;99443.44;5025389;28;20052;-45
2023/03/13 11:39:54;;;;;;;9.20;2.33;;;;;;;18.97;48.03;99455.19;5025868;28;20164;-46
2023/03/13 11:42:39;;;;;;;8.73;3.22;;;;;;;18.97;48.38;99452.50;5026449;28;20060;-45
2023/03/13 11:45:30;;;;;;;5.47;2.55;;;;;;;18.95;48.39;99449.19;5023348;28;20049;-45